KIKV

Ankeny Regional Airport

Ankeny, Iowa, USA
METAR KIKV 231055Z AUTO 14003KT 10SM SCT050 18/16 A3010 RMK AO2
Observed Flight Rules
May-23 @ 10:55 UTC (19 minutes ago) Visual Flight Rules
Wind Visibility Clouds
140° at 3 knots 10 miles
  • Scattered at 5,000' AGL
Temperatures Readings
Current 18°C / 64°F
Dewpoint 16°C / 61°F
Humidity 88%
Altimeter 30.1" Hg
Pressure 1019 hPa
Elevation 275
METAR KIKV 231055Z AUTO 14003KT 10SM SCT050 18/16 A3010 RMK AO2
Observed Flight Rules
May-23 @ 10:55 UTC
(19 minutes ago)
VFR
Wind Visibility
140° at 3 knots 10 miles
Clouds
  • Scattered at 5,000' AGL
Temperature Dewpoint
18°C / 64°F 16°C / 61°F
Humidity Altimeter Pressure
88% 30.1" Hg 1019 hPa